Beaumont, TX

9:58 AM CST on February 28, 2015 (GMT -0600)
Beaumont Municipal | Change Station
CLOSE
Current Station
Airport
Location: Beaumont / Port Arthur,
Elevation: 33 ft
Nearby Weather Stations

Elev 33 ft 30.07 °N, 94.22 °W | Updated 23 minutes ago

Overcast
Overcast
45 °F
Feels Like 41 °F
N
7
Wind Variable Wind from ENE

Today
High -- | Low -- °F
--% Chance of Precip.
Yesterday
High -- | Low -- °F
Precip. -- in
6:43 AM 6:14 PM
Waxing Gibbous, 78% visible
Pressure 30.35 in
Visibility 10.0 miles
Clouds Scattered Clouds 4800 ft
Mostly Cloudy 6000 ft
Overcast 9500 ft
Windchill 41 °F
Dew Point 32 °F
Humidity 60%
Rainfall 0.00 in
Snow Depth Not available.
UV 1 out of 12
Pollen 8.90 out of 12
Air Quality Not available.
Flu Activity Not available.
METAR KBMT 281535Z AUTO 06006KT 10SM SCT048 BKN060 OVC095 07/00 A3035 RMK AO2 T00730000

More Conditions Fewer Conditions

Pressure 30.35 in
Visibility 10.0 miles
Clouds Scattered Clouds 4800 ft
Mostly Cloudy 6000 ft
Overcast 9500 ft
Windchill 41 °F
Dew Point 32 °F
Humidity 60%
Rainfall 0.00 in
Snow Depth Not available.
UV 1 out of 12
Pollen 8.90 out of 12
Air Quality Not available.
Flu Activity Not available.
METAR KBMT 281535Z AUTO 06006KT 10SM SCT048 BKN060 OVC095 07/00 A3035 RMK AO2 T00730000

More Conditions Fewer Conditions

10-Day Weather Forecast

Almanac

Astronomy

Feb. 28, 2015 Rise Set
Actual Time
Civil Twilight
Nautical Twilight
Astronomical Twilight
Moon
Length of Visible Light
Length of Day
Tomorrow will be .
, % of the Moon is Illuminated

Today's Extremes

State Highs State Lows

Community

WunderPhotos

Upload Photos

1,801,055 photos uploaded!

WunderBlogs® & News

Nearby

Air Quality

  Air Quality AQ Index Pollutant
Not available.

Snow Depth

Station Depth Elevation

Earthquake Activity

City Distance Mag. Time & Date
Minimum magnitude displayed is 2.5.

Coastal Water Temperatures

Place Temperature

Nearby Weather Stations